sensor_id;sensor_type;location;lat;lon;timestamp;P1;durP1;ratioP1;P2;durP2;ratioP2
57233;SDS011;43090;52.604;13.318;2022-10-16T00:00:35;3.83;;;2.10;;
57233;SDS011;43090;52.604;13.318;2022-10-16T00:03:03;6.47;;;2.13;;
57233;SDS011;43090;52.604;13.318;2022-10-16T00:05:37;2.17;;;1.65;;
57233;SDS011;43090;52.604;13.318;2022-10-16T00:08:06;4.18;;;1.98;;
57233;SDS011;43090;52.604;13.318;2022-10-16T00:10:34;4.90;;;1.73;;
57233;SDS011;43090;52.604;13.318;2022-10-16T00:13:01;5.05;;;2.65;;
57233;SDS011;43090;52.604;13.318;2022-10-16T00:15:30;2.13;;;1.45;;
57233;SDS011;43090;52.604;13.318;2022-10-16T00:18:03;4.78;;;1.77;;
57233;SDS011;43090;52.604;13.318;2022-10-16T00:20:33;2.42;;;1.73;;
57233;SDS011;43090;52.604;13.318;2022-10-16T00:23:04;3.10;;;2.10;;
57233;SDS011;43090;52.604;13.318;2022-10-16T00:26:11;2.47;;;1.58;;
57233;SDS011;43090;52.604;13.318;2022-10-16T00:31:08;2.38;;;1.75;;
57233;SDS011;43090;52.604;13.318;2022-10-16T00:33:37;2.45;;;1.58;;
57233;SDS011;43090;52.604;13.318;2022-10-16T00:36:05;5.32;;;1.73;;
57233;SDS011;43090;52.604;13.318;2022-10-16T00:38:33;3.88;;;1.80;;
57233;SDS011;43090;52.604;13.318;2022-10-16T00:41:04;2.00;;;1.50;;
57233;SDS011;43090;52.604;13.318;2022-10-16T00:46:25;6.53;;;2.17;;
57233;SDS011;43090;52.604;13.318;2022-10-16T00:49:02;1.77;;;1.27;;
57233;SDS011;43090;52.604;13.318;2022-10-16T00:51:32;3.00;;;1.60;;
57233;SDS011;43090;52.604;13.318;2022-10-16T00:54:01;1.98;;;1.55;;
57233;SDS011;43090;52.604;13.318;2022-10-16T00:56:30;2.70;;;1.45;;
57233;SDS011;43090;52.604;13.318;2022-10-16T00:58:58;1.95;;;1.50;;
57233;SDS011;43090;52.604;13.318;2022-10-16T01:01:28;1.75;;;1.33;;
57233;SDS011;43090;52.604;13.318;2022-10-16T01:03:54;1.77;;;1.48;;
57233;SDS011;43090;52.604;13.318;2022-10-16T01:06:22;4.07;;;1.90;;
57233;SDS011;43090;52.604;13.318;2022-10-16T01:12:04;5.45;;;1.30;;
57233;SDS011;43090;52.604;13.318;2022-10-16T01:14:41;3.70;;;2.28;;
57233;SDS011;43090;52.604;13.318;2022-10-16T01:17:16;3.05;;;1.90;;
57233;SDS011;43090;52.604;13.318;2022-10-16T01:22:25;2.60;;;1.50;;
57233;SDS011;43090;52.604;13.318;2022-10-16T01:25:03;2.20;;;1.48;;
57233;SDS011;43090;52.604;13.318;2022-10-16T01:27:35;3.35;;;1.83;;
57233;SDS011;43090;52.604;13.318;2022-10-16T01:33:08;2.22;;;1.60;;
57233;SDS011;43090;52.604;13.318;2022-10-16T01:35:41;1.42;;;1.23;;
57233;SDS011;43090;52.604;13.318;2022-10-16T01:40:49;5.45;;;1.30;;
57233;SDS011;43090;52.604;13.318;2022-10-16T01:43:19;3.58;;;1.63;;
57233;SDS011;43090;52.604;13.318;2022-10-16T01:45:51;2.58;;;1.58;;
57233;SDS011;43090;52.604;13.318;2022-10-16T01:48:21;2.85;;;1.73;;
57233;SDS011;43090;52.604;13.318;2022-10-16T01:51:06;4.22;;;1.52;;
57233;SDS011;43090;52.604;13.318;2022-10-16T01:53:36;1.48;;;1.17;;
57233;SDS011;43090;52.604;13.318;2022-10-16T01:56:03;5.20;;;1.20;;
57233;SDS011;43090;52.604;13.318;2022-10-16T01:58:34;3.83;;;1.40;;
57233;SDS011;43090;52.604;13.318;2022-10-16T02:01:06;2.35;;;1.33;;
57233;SDS011;43090;52.604;13.318;2022-10-16T02:03:38;2.72;;;1.40;;
57233;SDS011;43090;52.604;13.318;2022-10-16T02:06:09;2.95;;;1.30;;
57233;SDS011;43090;52.604;13.318;2022-10-16T02:08:35;1.33;;;1.20;;
57233;SDS011;43090;52.604;13.318;2022-10-16T02:11:05;3.30;;;1.35;;
57233;SDS011;43090;52.604;13.318;2022-10-16T02:13:39;6.80;;;1.67;;
57233;SDS011;43090;52.604;13.318;2022-10-16T02:16:11;1.90;;;1.10;;
57233;SDS011;43090;52.604;13.318;2022-10-16T02:18:42;2.47;;;1.13;;
57233;SDS011;43090;52.604;13.318;2022-10-16T02:24:03;1.33;;;1.08;;
57233;SDS011;43090;52.604;13.318;2022-10-16T02:26:37;1.67;;;1.17;;
57233;SDS011;43090;52.604;13.318;2022-10-16T02:29:11;4.20;;;1.40;;
57233;SDS011;43090;52.604;13.318;2022-10-16T02:31:41;2.40;;;1.00;;
57233;SDS011;43090;52.604;13.318;2022-10-16T02:34:15;2.35;;;1.00;;
57233;SDS011;43090;52.604;13.318;2022-10-16T02:36:44;2.40;;;1.23;;
57233;SDS011;43090;52.604;13.318;2022-10-16T02:39:13;1.40;;;1.08;;
57233;SDS011;43090;52.604;13.318;2022-10-16T02:41:41;4.05;;;1.38;;
57233;SDS011;43090;52.604;13.318;2022-10-16T02:44:07;1.73;;;1.30;;
57233;SDS011;43090;52.604;13.318;2022-10-16T02:46:34;1.38;;;0.95;;
57233;SDS011;43090;52.604;13.318;2022-10-16T02:49:00;2.70;;;1.30;;
57233;SDS011;43090;52.604;13.318;2022-10-16T02:51:27;1.75;;;1.60;;
57233;SDS011;43090;52.604;13.318;2022-10-16T02:53:53;2.83;;;1.30;;
57233;SDS011;43090;52.604;13.318;2022-10-16T02:56:20;1.85;;;1.27;;
57233;SDS011;43090;52.604;13.318;2022-10-16T02:58:46;2.83;;;1.50;;
57233;SDS011;43090;52.604;13.318;2022-10-16T03:01:13;2.65;;;1.13;;
57233;SDS011;43090;52.604;13.318;2022-10-16T03:03:40;1.90;;;1.27;;
57233;SDS011;43090;52.604;13.318;2022-10-16T03:06:07;1.73;;;1.40;;
57233;SDS011;43090;52.604;13.318;2022-10-16T03:08:33;3.13;;;1.40;;
57233;SDS011;43090;52.604;13.318;2022-10-16T03:11:00;3.33;;;1.58;;
57233;SDS011;43090;52.604;13.318;2022-10-16T03:13:26;3.85;;;1.40;;
57233;SDS011;43090;52.604;13.318;2022-10-16T03:15:53;1.95;;;1.05;;
57233;SDS011;43090;52.604;13.318;2022-10-16T03:18:19;7.43;;;1.30;;
57233;SDS011;43090;52.604;13.318;2022-10-16T03:20:46;2.65;;;1.35;;
57233;SDS011;43090;52.604;13.318;2022-10-16T03:23:12;7.20;;;1.52;;
57233;SDS011;43090;52.604;13.318;2022-10-16T03:25:39;3.65;;;1.15;;
57233;SDS011;43090;52.604;13.318;2022-10-16T03:28:05;2.00;;;1.13;;
57233;SDS011;43090;52.604;13.318;2022-10-16T03:30:32;3.47;;;1.45;;
57233;SDS011;43090;52.604;13.318;2022-10-16T03:32:58;5.97;;;1.20;;
57233;SDS011;43090;52.604;13.318;2022-10-16T03:35:25;5.00;;;1.50;;
57233;SDS011;43090;52.604;13.318;2022-10-16T03:37:52;4.38;;;1.50;;
57233;SDS011;43090;52.604;13.318;2022-10-16T03:40:19;1.30;;;1.00;;
57233;SDS011;43090;52.604;13.318;2022-10-16T03:42:48;1.73;;;1.23;;
57233;SDS011;43090;52.604;13.318;2022-10-16T03:45:14;1.92;;;1.30;;
57233;SDS011;43090;52.604;13.318;2022-10-16T03:47:41;1.75;;;1.10;;
57233;SDS011;43090;52.604;13.318;2022-10-16T03:50:08;2.88;;;1.33;;
57233;SDS011;43090;52.604;13.318;2022-10-16T03:52:35;1.83;;;1.30;;
57233;SDS011;43090;52.604;13.318;2022-10-16T03:55:01;5.30;;;1.48;;
57233;SDS011;43090;52.604;13.318;2022-10-16T03:57:28;2.35;;;1.50;;
57233;SDS011;43090;52.604;13.318;2022-10-16T04:00:01;2.80;;;1.17;;
57233;SDS011;43090;52.604;13.318;2022-10-16T04:04:54;3.05;;;1.20;;
57233;SDS011;43090;52.604;13.318;2022-10-16T04:07:21;4.72;;;1.13;;
57233;SDS011;43090;52.604;13.318;2022-10-16T04:09:49;3.28;;;1.75;;
57233;SDS011;43090;52.604;13.318;2022-10-16T04:12:23;4.25;;;1.10;;
57233;SDS011;43090;52.604;13.318;2022-10-16T04:15:19;5.10;;;1.40;;
57233;SDS011;43090;52.604;13.318;2022-10-16T04:17:57;2.50;;;1.70;;
57233;SDS011;43090;52.604;13.318;2022-10-16T04:20:53;9.20;;;1.40;;
57233;SDS011;43090;52.604;13.318;2022-10-16T04:23:42;4.03;;;1.20;;
57233;SDS011;43090;52.604;13.318;2022-10-16T04:26:26;2.58;;;1.60;;
57233;SDS011;43090;52.604;13.318;2022-10-16T04:29:29;3.00;;;1.48;;
57233;SDS011;43090;52.604;13.318;2022-10-16T04:32:11;1.92;;;1.10;;
57233;SDS011;43090;52.604;13.318;2022-10-16T04:35:38;1.40;;;1.20;;
57233;SDS011;43090;52.604;13.318;2022-10-16T04:38:45;9.65;;;1.38;;
57233;SDS011;43090;52.604;13.318;2022-10-16T04:41:24;4.35;;;1.33;;
57233;SDS011;43090;52.604;13.318;2022-10-16T04:44:10;3.67;;;1.45;;
57233;SDS011;43090;52.604;13.318;2022-10-16T04:46:58;2.67;;;1.17;;
57233;SDS011;43090;52.604;13.318;2022-10-16T04:49:35;1.85;;;1.20;;
57233;SDS011;43090;52.604;13.318;2022-10-16T04:52:16;3.15;;;1.33;;
57233;SDS011;43090;52.604;13.318;2022-10-16T04:54:58;4.38;;;1.52;;
57233;SDS011;43090;52.604;13.318;2022-10-16T04:57:37;5.43;;;1.50;;
57233;SDS011;43090;52.604;13.318;2022-10-16T05:00:17;1.65;;;1.23;;
57233;SDS011;43090;52.604;13.318;2022-10-16T05:06:39;3.00;;;1.13;;
57233;SDS011;43090;52.604;13.318;2022-10-16T05:09:24;4.72;;;1.40;;
57233;SDS011;43090;52.604;13.318;2022-10-16T05:12:08;4.78;;;1.50;;
57233;SDS011;43090;52.604;13.318;2022-10-16T05:18:32;1.60;;;1.33;;
57233;SDS011;43090;52.604;13.318;2022-10-16T05:21:06;2.03;;;1.42;;
57233;SDS011;43090;52.604;13.318;2022-10-16T05:23:46;1.85;;;1.20;;
57233;SDS011;43090;52.604;13.318;2022-10-16T05:26:15;7.35;;;1.77;;
57233;SDS011;43090;52.604;13.318;2022-10-16T05:29:10;2.35;;;1.30;;
57233;SDS011;43090;52.604;13.318;2022-10-16T05:31:43;10.23;;;1.33;;
57233;SDS011;43090;52.604;13.318;2022-10-16T05:34:28;3.33;;;1.20;;
57233;SDS011;43090;52.604;13.318;2022-10-16T05:37:24;1.80;;;1.20;;
57233;SDS011;43090;52.604;13.318;2022-10-16T05:39:58;1.83;;;1.42;;
57233;SDS011;43090;52.604;13.318;2022-10-16T05:42:30;3.28;;;1.70;;
57233;SDS011;43090;52.604;13.318;2022-10-16T05:45:22;3.83;;;1.73;;
57233;SDS011;43090;52.604;13.318;2022-10-16T05:47:55;2.53;;;1.85;;
57233;SDS011;43090;52.604;13.318;2022-10-16T05:50:32;2.88;;;1.55;;
57233;SDS011;43090;52.604;13.318;2022-10-16T05:53:26;2.50;;;1.80;;
57233;SDS011;43090;52.604;13.318;2022-10-16T05:56:09;3.70;;;1.40;;
57233;SDS011;43090;52.604;13.318;2022-10-16T05:59:11;2.08;;;1.65;;
57233;SDS011;43090;52.604;13.318;2022-10-16T06:01:43;5.18;;;1.30;;
57233;SDS011;43090;52.604;13.318;2022-10-16T06:04:36;6.18;;;1.50;;
57233;SDS011;43090;52.604;13.318;2022-10-16T06:07:11;5.07;;;1.92;;
57233;SDS011;43090;52.604;13.318;2022-10-16T06:09:43;1.88;;;1.42;;
57233;SDS011;43090;52.604;13.318;2022-10-16T06:12:26;2.53;;;1.77;;
57233;SDS011;43090;52.604;13.318;2022-10-16T06:15:05;11.30;;;1.92;;
57233;SDS011;43090;52.604;13.318;2022-10-16T06:17:58;8.57;;;1.80;;
57233;SDS011;43090;52.604;13.318;2022-10-16T06:20:37;4.40;;;1.48;;
57233;SDS011;43090;52.604;13.318;2022-10-16T06:23:10;7.60;;;1.70;;
57233;SDS011;43090;52.604;13.318;2022-10-16T06:26:16;2.47;;;1.50;;
57233;SDS011;43090;52.604;13.318;2022-10-16T06:29:17;4.03;;;1.67;;
57233;SDS011;43090;52.604;13.318;2022-10-16T06:31:54;2.65;;;1.70;;
57233;SDS011;43090;52.604;13.318;2022-10-16T06:34:38;3.08;;;1.83;;
57233;SDS011;43090;52.604;13.318;2022-10-16T06:37:12;3.33;;;1.90;;
57233;SDS011;43090;52.604;13.318;2022-10-16T06:40:34;5.20;;;1.88;;
57233;SDS011;43090;52.604;13.318;2022-10-16T06:43:59;4.53;;;1.58;;
57233;SDS011;43090;52.604;13.318;2022-10-16T06:46:54;4.13;;;1.70;;
57233;SDS011;43090;52.604;13.318;2022-10-16T06:49:31;2.17;;;1.85;;
57233;SDS011;43090;52.604;13.318;2022-10-16T06:52:43;6.00;;;1.83;;
57233;SDS011;43090;52.604;13.318;2022-10-16T06:55:36;5.45;;;1.65;;
57233;SDS011;43090;52.604;13.318;2022-10-16T06:58:43;6.18;;;1.58;;
57233;SDS011;43090;52.604;13.318;2022-10-16T07:01:45;2.85;;;1.83;;
57233;SDS011;43090;52.604;13.318;2022-10-16T07:16:46;3.17;;;2.10;;
57233;SDS011;43090;52.604;13.318;2022-10-16T07:19:25;3.20;;;1.70;;
57233;SDS011;43090;52.604;13.318;2022-10-16T07:21:57;2.17;;;1.40;;
57233;SDS011;43090;52.604;13.318;2022-10-16T07:24:24;1.65;;;1.48;;
57233;SDS011;43090;52.604;13.318;2022-10-16T07:26:51;5.50;;;1.73;;
57233;SDS011;43090;52.604;13.318;2022-10-16T07:29:21;4.57;;;1.40;;
57233;SDS011;43090;52.604;13.318;2022-10-16T07:31:51;3.67;;;1.52;;
57233;SDS011;43090;52.604;13.318;2022-10-16T07:42:05;5.38;;;1.92;;
57233;SDS011;43090;52.604;13.318;2022-10-16T07:44:35;2.75;;;1.35;;
57233;SDS011;43090;52.604;13.318;2022-10-16T07:47:05;8.57;;;1.80;;
57233;SDS011;43090;52.604;13.318;2022-10-16T07:49:32;1.30;;;1.20;;
57233;SDS011;43090;52.604;13.318;2022-10-16T07:51:58;10.77;;;1.92;;
57233;SDS011;43090;52.604;13.318;2022-10-16T07:57:08;2.75;;;1.35;;
57233;SDS011;43090;52.604;13.318;2022-10-16T07:59:51;2.60;;;1.45;;
57233;SDS011;43090;52.604;13.318;2022-10-16T08:02:32;2.50;;;1.27;;
57233;SDS011;43090;52.604;13.318;2022-10-16T08:04:59;5.90;;;1.40;;
57233;SDS011;43090;52.604;13.318;2022-10-16T08:18:13;5.97;;;1.40;;
57233;SDS011;43090;52.604;13.318;2022-10-16T08:23:34;2.95;;;1.15;;
57233;SDS011;43090;52.604;13.318;2022-10-16T08:26:07;2.42;;;1.45;;
57233;SDS011;43090;52.604;13.318;2022-10-16T08:28:35;1.50;;;1.30;;
57233;SDS011;43090;52.604;13.318;2022-10-16T08:33:45;4.05;;;1.48;;
57233;SDS011;43090;52.604;13.318;2022-10-16T08:37:06;3.35;;;1.50;;
57233;SDS011;43090;52.604;13.318;2022-10-16T08:39:56;2.30;;;1.33;;
57233;SDS011;43090;52.604;13.318;2022-10-16T09:27:01;3.15;;;1.15;;
57233;SDS011;43090;52.604;13.318;2022-10-16T09:29:51;2.80;;;1.33;;
57233;SDS011;43090;52.604;13.318;2022-10-16T09:32:31;1.48;;;1.30;;
57233;SDS011;43090;52.604;13.318;2022-10-16T09:39:11;5.43;;;1.13;;
57233;SDS011;43090;52.604;13.318;2022-10-16T09:41:39;5.85;;;1.75;;
57233;SDS011;43090;52.604;13.318;2022-10-16T09:44:46;1.95;;;1.40;;
57233;SDS011;43090;52.604;13.318;2022-10-16T09:47:26;1.77;;;1.17;;
57233;SDS011;43090;52.604;13.318;2022-10-16T09:51:32;2.65;;;1.45;;
57233;SDS011;43090;52.604;13.318;2022-10-16T10:12:57;3.10;;;1.30;;
57233;SDS011;43090;52.604;13.318;2022-10-16T10:15:32;3.35;;;1.10;;
57233;SDS011;43090;52.604;13.318;2022-10-16T10:18:15;3.80;;;1.20;;
57233;SDS011;43090;52.604;13.318;2022-10-16T10:36:37;2.28;;;1.33;;
57233;SDS011;43090;52.604;13.318;2022-10-16T10:39:35;1.40;;;0.98;;
57233;SDS011;43090;52.604;13.318;2022-10-16T10:45:08;1.92;;;1.10;;
57233;SDS011;43090;52.604;13.318;2022-10-16T12:46:39;3.22;;;0.90;;
57233;SDS011;43090;52.604;13.318;2022-10-16T13:53:16;1.38;;;0.35;;
57233;SDS011;43090;52.604;13.318;2022-10-16T14:04:24;1.15;;;0.35;;
57233;SDS011;43090;52.604;13.318;2022-10-16T14:31:53;1.55;;;0.50;;
57233;SDS011;43090;52.604;13.318;2022-10-16T14:43:03;0.60;;;0.30;;
57233;SDS011;43090;52.604;13.318;2022-10-16T14:46:34;4.88;;;0.55;;
57233;SDS011;43090;52.604;13.318;2022-10-16T14:53:35;0.38;;;0.25;;
57233;SDS011;43090;52.604;13.318;2022-10-16T14:56:50;3.13;;;0.70;;
57233;SDS011;43090;52.604;13.318;2022-10-16T14:59:39;0.63;;;0.30;;
57233;SDS011;43090;52.604;13.318;2022-10-16T15:02:28;0.80;;;0.50;;
57233;SDS011;43090;52.604;13.318;2022-10-16T15:09:08;1.00;;;0.47;;
57233;SDS011;43090;52.604;13.318;2022-10-16T15:19:10;1.35;;;0.68;;
57233;SDS011;43090;52.604;13.318;2022-10-16T15:32:20;1.13;;;0.70;;
57233;SDS011;43090;52.604;13.318;2022-10-16T15:35:08;3.08;;;0.50;;
57233;SDS011;43090;52.604;13.318;2022-10-16T15:37:52;2.28;;;0.63;;
57233;SDS011;43090;52.604;13.318;2022-10-16T15:41:24;2.47;;;1.02;;
57233;SDS011;43090;52.604;13.318;2022-10-16T15:44:41;0.80;;;0.30;;
57233;SDS011;43090;52.604;13.318;2022-10-16T15:47:23;0.75;;;0.40;;
57233;SDS011;43090;52.604;13.318;2022-10-16T15:50:03;0.85;;;0.50;;
57233;SDS011;43090;52.604;13.318;2022-10-16T22:12:30;17.17;;;8.15;;
57233;SDS011;43090;52.604;13.318;2022-10-16T22:15:19;18.60;;;7.88;;
57233;SDS011;43090;52.604;13.318;2022-10-16T22:18:53;14.73;;;7.70;;
57233;SDS011;43090;52.604;13.318;2022-10-16T22:22:03;15.20;;;7.70;;
57233;SDS011;43090;52.604;13.318;2022-10-16T22:24:42;18.70;;;7.63;;
57233;SDS011;43090;52.604;13.318;2022-10-16T22:30:43;18.77;;;7.13;;
57233;SDS011;43090;52.604;13.318;2022-10-16T22:33:22;11.35;;;6.95;;
57233;SDS011;43090;52.604;13.318;2022-10-16T22:35:55;16.00;;;7.28;;
57233;SDS011;43090;52.604;13.318;2022-10-16T22:46:39;13.43;;;6.75;;
57233;SDS011;43090;52.604;13.318;2022-10-16T22:49:20;18.15;;;7.10;;
57233;SDS011;43090;52.604;13.318;2022-10-16T22:51:53;17.73;;;7.20;;
57233;SDS011;43090;52.604;13.318;2022-10-16T23:01:39;13.40;;;8.07;;
57233;SDS011;43090;52.604;13.318;2022-10-16T23:04:20;24.75;;;7.57;;
57233;SDS011;43090;52.604;13.318;2022-10-16T23:06:54;21.73;;;7.85;;
57233;SDS011;43090;52.604;13.318;2022-10-16T23:09:29;17.45;;;7.68;;
57233;SDS011;43090;52.604;13.318;2022-10-16T23:12:00;14.18;;;8.27;;
57233;SDS011;43090;52.604;13.318;2022-10-16T23:14:27;18.02;;;7.32;;
57233;SDS011;43090;52.604;13.318;2022-10-16T23:19:20;15.60;;;8.07;;
57233;SDS011;43090;52.604;13.318;2022-10-16T23:21:52;11.65;;;6.35;;
57233;SDS011;43090;52.604;13.318;2022-10-16T23:36:14;13.48;;;7.35;;
57233;SDS011;43090;52.604;13.318;2022-10-16T23:38:52;13.63;;;7.30;;
57233;SDS011;43090;52.604;13.318;2022-10-16T23:41:27;17.40;;;8.45;;
57233;SDS011;43090;52.604;13.318;2022-10-16T23:43:54;13.70;;;7.80;;
57233;SDS011;43090;52.604;13.318;2022-10-16T23:46:33;18.77;;;9.80;;
57233;SDS011;43090;52.604;13.318;2022-10-16T23:49:13;15.05;;;8.82;;
57233;SDS011;43090;52.604;13.318;2022-10-16T23:52:10;22.17;;;8.32;;
57233;SDS011;43090;52.604;13.318;2022-10-16T23:55:01;13.88;;;7.88;;
57233;SDS011;43090;52.604;13.318;2022-10-16T23:57:49;23.27;;;9.13;;
